sensor_id;sensor_type;location;lat;lon;timestamp;temperature;humidity
2889;DHT22;1453;42.708;23.282;2024-03-08T00:00:08;5.70;99.90
2889;DHT22;1453;42.708;23.282;2024-03-08T00:02:41;5.80;99.90
2889;DHT22;1453;42.708;23.282;2024-03-08T00:05:08;5.80;99.90
2889;DHT22;1453;42.708;23.282;2024-03-08T00:07:35;5.90;99.90
2889;DHT22;1453;42.708;23.282;2024-03-08T00:10:03;6.10;99.90
2889;DHT22;1453;42.708;23.282;2024-03-08T00:12:29;5.90;99.90
2889;DHT22;1453;42.708;23.282;2024-03-08T00:14:56;5.70;99.90
2889;DHT22;1453;42.708;23.282;2024-03-08T00:17:22;5.80;99.90
2889;DHT22;1453;42.708;23.282;2024-03-08T00:19:50;5.80;99.90
2889;DHT22;1453;42.708;23.282;2024-03-08T00:22:17;5.70;99.90
2889;DHT22;1453;42.708;23.282;2024-03-08T00:24:43;5.80;99.90
2889;DHT22;1453;42.708;23.282;2024-03-08T00:27:09;5.80;99.90
2889;DHT22;1453;42.708;23.282;2024-03-08T00:29:37;5.60;99.90
2889;DHT22;1453;42.708;23.282;2024-03-08T00:32:05;5.60;99.90
2889;DHT22;1453;42.708;23.282;2024-03-08T00:34:35;5.60;99.90
2889;DHT22;1453;42.708;23.282;2024-03-08T00:37:03;5.70;99.90
2889;DHT22;1453;42.708;23.282;2024-03-08T00:39:29;5.80;99.90
2889;DHT22;1453;42.708;23.282;2024-03-08T00:41:55;5.60;99.90
2889;DHT22;1453;42.708;23.282;2024-03-08T00:44:21;5.60;99.90
2889;DHT22;1453;42.708;23.282;2024-03-08T00:46:47;5.60;99.90
2889;DHT22;1453;42.708;23.282;2024-03-08T00:49:13;5.50;99.90
2889;DHT22;1453;42.708;23.282;2024-03-08T00:51:39;5.50;99.90
2889;DHT22;1453;42.708;23.282;2024-03-08T00:54:04;5.60;99.90
2889;DHT22;1453;42.708;23.282;2024-03-08T00:56:30;5.60;99.90
2889;DHT22;1453;42.708;23.282;2024-03-08T00:58:56;5.50;99.90
2889;DHT22;1453;42.708;23.282;2024-03-08T01:01:22;5.60;99.90
2889;DHT22;1453;42.708;23.282;2024-03-08T01:03:50;5.50;99.90
2889;DHT22;1453;42.708;23.282;2024-03-08T01:06:16;5.60;99.90
2889;DHT22;1453;42.708;23.282;2024-03-08T01:08:41;5.60;99.90
2889;DHT22;1453;42.708;23.282;2024-03-08T01:11:08;5.40;99.90
2889;DHT22;1453;42.708;23.282;2024-03-08T01:13:34;5.30;99.90
2889;DHT22;1453;42.708;23.282;2024-03-08T01:16:01;5.40;99.90
2889;DHT22;1453;42.708;23.282;2024-03-08T01:18:29;5.50;99.90
2889;DHT22;1453;42.708;23.282;2024-03-08T01:20:55;5.40;99.90
2889;DHT22;1453;42.708;23.282;2024-03-08T01:23:21;5.40;99.90
2889;DHT22;1453;42.708;23.282;2024-03-08T01:25:47;5.30;99.90
2889;DHT22;1453;42.708;23.282;2024-03-08T01:28:25;5.40;99.90
2889;DHT22;1453;42.708;23.282;2024-03-08T01:30:52;5.40;99.90
2889;DHT22;1453;42.708;23.282;2024-03-08T01:33:24;5.40;99.90
2889;DHT22;1453;42.708;23.282;2024-03-08T01:35:54;5.50;99.90
2889;DHT22;1453;42.708;23.282;2024-03-08T01:38:20;5.40;99.90
2889;DHT22;1453;42.708;23.282;2024-03-08T01:40:47;5.50;99.90
2889;DHT22;1453;42.708;23.282;2024-03-08T01:43:20;5.50;99.90
2889;DHT22;1453;42.708;23.282;2024-03-08T01:45:57;5.40;99.90
2889;DHT22;1453;42.708;23.282;2024-03-08T01:48:28;5.50;99.90
2889;DHT22;1453;42.708;23.282;2024-03-08T01:50:56;5.50;99.90
2889;DHT22;1453;42.708;23.282;2024-03-08T01:53:24;5.60;99.90
2889;DHT22;1453;42.708;23.282;2024-03-08T01:55:54;5.60;99.90
2889;DHT22;1453;42.708;23.282;2024-03-08T01:58:23;5.60;99.90
2889;DHT22;1453;42.708;23.282;2024-03-08T02:00:59;5.50;99.90
2889;DHT22;1453;42.708;23.282;2024-03-08T02:03:25;5.60;99.90
2889;DHT22;1453;42.708;23.282;2024-03-08T02:05:51;5.50;99.90
2889;DHT22;1453;42.708;23.282;2024-03-08T02:08:17;5.40;99.90
2889;DHT22;1453;42.708;23.282;2024-03-08T02:10:44;5.40;99.90
2889;DHT22;1453;42.708;23.282;2024-03-08T02:13:11;5.30;99.90
2889;DHT22;1453;42.708;23.282;2024-03-08T02:15:56;5.30;99.90
2889;DHT22;1453;42.708;23.282;2024-03-08T02:18:28;5.20;99.90
2889;DHT22;1453;42.708;23.282;2024-03-08T02:20:55;5.30;99.90
2889;DHT22;1453;42.708;23.282;2024-03-08T02:23:23;5.40;99.90
2889;DHT22;1453;42.708;23.282;2024-03-08T02:25:50;5.40;99.90
2889;DHT22;1453;42.708;23.282;2024-03-08T02:28:17;5.40;99.90
2889;DHT22;1453;42.708;23.282;2024-03-08T02:30:48;5.40;99.90
2889;DHT22;1453;42.708;23.282;2024-03-08T02:33:17;5.40;99.90
2889;DHT22;1453;42.708;23.282;2024-03-08T02:35:44;5.40;99.90
2889;DHT22;1453;42.708;23.282;2024-03-08T02:38:18;5.60;99.90
2889;DHT22;1453;42.708;23.282;2024-03-08T02:40:46;5.60;99.90
2889;DHT22;1453;42.708;23.282;2024-03-08T02:43:14;5.60;99.90
2889;DHT22;1453;42.708;23.282;2024-03-08T02:45:41;5.60;99.90
2889;DHT22;1453;42.708;23.282;2024-03-08T02:48:08;5.60;99.90
2889;DHT22;1453;42.708;23.282;2024-03-08T02:50:34;5.50;99.90
2889;DHT22;1453;42.708;23.282;2024-03-08T02:53:01;5.50;99.90
2889;DHT22;1453;42.708;23.282;2024-03-08T02:55:28;5.50;99.90
2889;DHT22;1453;42.708;23.282;2024-03-08T02:57:55;5.40;99.90
2889;DHT22;1453;42.708;23.282;2024-03-08T03:00:22;5.40;99.90
2889;DHT22;1453;42.708;23.282;2024-03-08T03:02:52;5.50;99.90
2889;DHT22;1453;42.708;23.282;2024-03-08T03:05:21;5.30;99.90
2889;DHT22;1453;42.708;23.282;2024-03-08T03:07:47;5.20;99.90
2889;DHT22;1453;42.708;23.282;2024-03-08T03:10:14;5.30;99.90
2889;DHT22;1453;42.708;23.282;2024-03-08T03:12:43;5.40;99.90
2889;DHT22;1453;42.708;23.282;2024-03-08T03:15:11;5.40;99.90
2889;DHT22;1453;42.708;23.282;2024-03-08T03:17:38;5.40;99.90
2889;DHT22;1453;42.708;23.282;2024-03-08T03:20:07;5.50;99.90
2889;DHT22;1453;42.708;23.282;2024-03-08T03:22:39;5.30;99.90
2889;DHT22;1453;42.708;23.282;2024-03-08T03:25:12;5.20;99.90
2889;DHT22;1453;42.708;23.282;2024-03-08T03:27:38;5.20;99.90
2889;DHT22;1453;42.708;23.282;2024-03-08T03:30:06;5.10;99.90
2889;DHT22;1453;42.708;23.282;2024-03-08T03:32:50;5.10;99.90
2889;DHT22;1453;42.708;23.282;2024-03-08T03:35:17;5.20;99.90
2889;DHT22;1453;42.708;23.282;2024-03-08T03:37:46;5.10;99.90
2889;DHT22;1453;42.708;23.282;2024-03-08T03:40:47;5.20;99.90
2889;DHT22;1453;42.708;23.282;2024-03-08T03:43:14;5.20;99.90
2889;DHT22;1453;42.708;23.282;2024-03-08T03:45:40;5.20;99.90
2889;DHT22;1453;42.708;23.282;2024-03-08T03:48:07;5.10;99.90
2889;DHT22;1453;42.708;23.282;2024-03-08T03:50:36;5.00;99.90
2889;DHT22;1453;42.708;23.282;2024-03-08T03:53:03;5.00;99.90
2889;DHT22;1453;42.708;23.282;2024-03-08T03:55:29;4.90;99.90
2889;DHT22;1453;42.708;23.282;2024-03-08T03:57:55;4.80;99.90
2889;DHT22;1453;42.708;23.282;2024-03-08T04:00:21;4.90;99.90
2889;DHT22;1453;42.708;23.282;2024-03-08T04:02:47;4.80;99.90
2889;DHT22;1453;42.708;23.282;2024-03-08T04:05:13;4.90;99.90
2889;DHT22;1453;42.708;23.282;2024-03-08T04:07:39;4.90;99.90
2889;DHT22;1453;42.708;23.282;2024-03-08T04:10:06;5.00;99.90
2889;DHT22;1453;42.708;23.282;2024-03-08T04:12:36;5.00;99.90
2889;DHT22;1453;42.708;23.282;2024-03-08T04:15:02;4.90;99.90
2889;DHT22;1453;42.708;23.282;2024-03-08T04:17:34;4.90;99.90
2889;DHT22;1453;42.708;23.282;2024-03-08T04:20:03;4.80;99.90
2889;DHT22;1453;42.708;23.282;2024-03-08T04:22:38;4.80;99.90
2889;DHT22;1453;42.708;23.282;2024-03-08T04:25:05;4.90;99.90
2889;DHT22;1453;42.708;23.282;2024-03-08T04:27:33;4.80;99.90
2889;DHT22;1453;42.708;23.282;2024-03-08T04:30:00;4.80;99.90
2889;DHT22;1453;42.708;23.282;2024-03-08T04:32:26;4.80;99.90
2889;DHT22;1453;42.708;23.282;2024-03-08T04:34:55;4.80;99.90
2889;DHT22;1453;42.708;23.282;2024-03-08T04:37:21;4.80;99.90
2889;DHT22;1453;42.708;23.282;2024-03-08T04:39:47;4.80;99.90
2889;DHT22;1453;42.708;23.282;2024-03-08T04:42:14;4.80;99.90
2889;DHT22;1453;42.708;23.282;2024-03-08T04:44:41;4.80;99.90
2889;DHT22;1453;42.708;23.282;2024-03-08T04:47:07;4.90;99.90
2889;DHT22;1453;42.708;23.282;2024-03-08T04:49:33;4.90;99.90
2889;DHT22;1453;42.708;23.282;2024-03-08T04:52:02;4.90;99.90
2889;DHT22;1453;42.708;23.282;2024-03-08T04:54:29;4.80;99.90
2889;DHT22;1453;42.708;23.282;2024-03-08T04:56:56;4.70;99.90
2889;DHT22;1453;42.708;23.282;2024-03-08T04:59:22;4.60;99.90
2889;DHT22;1453;42.708;23.282;2024-03-08T05:01:48;4.60;99.90
2889;DHT22;1453;42.708;23.282;2024-03-08T05:04:14;4.60;99.90
2889;DHT22;1453;42.708;23.282;2024-03-08T05:06:40;4.70;99.90
2889;DHT22;1453;42.708;23.282;2024-03-08T05:09:06;4.80;99.90
2889;DHT22;1453;42.708;23.282;2024-03-08T05:11:45;4.70;99.90
2889;DHT22;1453;42.708;23.282;2024-03-08T05:14:12;4.70;99.90
2889;DHT22;1453;42.708;23.282;2024-03-08T05:16:43;4.70;99.90
2889;DHT22;1453;42.708;23.282;2024-03-08T05:19:14;4.70;99.90
2889;DHT22;1453;42.708;23.282;2024-03-08T05:21:50;4.70;99.90
2889;DHT22;1453;42.708;23.282;2024-03-08T05:24:16;4.60;99.90
2889;DHT22;1453;42.708;23.282;2024-03-08T05:26:43;4.70;99.90
2889;DHT22;1453;42.708;23.282;2024-03-08T05:29:09;4.70;99.90
2889;DHT22;1453;42.708;23.282;2024-03-08T05:31:48;4.80;99.90
2889;DHT22;1453;42.708;23.282;2024-03-08T05:34:15;4.60;99.90
2889;DHT22;1453;42.708;23.282;2024-03-08T05:36:42;4.60;99.90
2889;DHT22;1453;42.708;23.282;2024-03-08T05:39:11;4.60;99.90
2889;DHT22;1453;42.708;23.282;2024-03-08T05:41:38;4.70;99.90
2889;DHT22;1453;42.708;23.282;2024-03-08T05:44:05;4.70;99.90
2889;DHT22;1453;42.708;23.282;2024-03-08T05:46:31;4.60;99.90
2889;DHT22;1453;42.708;23.282;2024-03-08T05:48:57;4.70;99.90
2889;DHT22;1453;42.708;23.282;2024-03-08T05:51:25;4.60;99.90
2889;DHT22;1453;42.708;23.282;2024-03-08T05:53:53;4.60;99.90
2889;DHT22;1453;42.708;23.282;2024-03-08T05:56:22;4.60;99.90
2889;DHT22;1453;42.708;23.282;2024-03-08T05:58:51;4.60;99.90
2889;DHT22;1453;42.708;23.282;2024-03-08T06:01:17;4.60;99.90
2889;DHT22;1453;42.708;23.282;2024-03-08T06:03:43;4.60;99.90
2889;DHT22;1453;42.708;23.282;2024-03-08T06:06:12;4.50;99.90
2889;DHT22;1453;42.708;23.282;2024-03-08T06:08:39;4.60;99.90
2889;DHT22;1453;42.708;23.282;2024-03-08T06:11:05;4.60;99.90
2889;DHT22;1453;42.708;23.282;2024-03-08T06:13:34;4.60;99.90
2889;DHT22;1453;42.708;23.282;2024-03-08T06:16:01;4.60;99.90
2889;DHT22;1453;42.708;23.282;2024-03-08T06:18:31;4.60;99.90
2889;DHT22;1453;42.708;23.282;2024-03-08T06:20:57;4.60;99.90
2889;DHT22;1453;42.708;23.282;2024-03-08T06:23:23;4.80;99.90
2889;DHT22;1453;42.708;23.282;2024-03-08T06:25:49;4.80;99.90
2889;DHT22;1453;42.708;23.282;2024-03-08T06:28:16;4.80;99.90
2889;DHT22;1453;42.708;23.282;2024-03-08T06:30:42;4.90;99.90
2889;DHT22;1453;42.708;23.282;2024-03-08T06:33:08;4.90;99.90
2889;DHT22;1453;42.708;23.282;2024-03-08T06:35:35;4.80;99.90
2889;DHT22;1453;42.708;23.282;2024-03-08T06:38:04;4.80;99.90
2889;DHT22;1453;42.708;23.282;2024-03-08T06:40:30;4.60;99.90
2889;DHT22;1453;42.708;23.282;2024-03-08T06:42:56;4.70;99.90
2889;DHT22;1453;42.708;23.282;2024-03-08T06:45:22;4.70;99.90
2889;DHT22;1453;42.708;23.282;2024-03-08T06:47:49;4.90;99.90
2889;DHT22;1453;42.708;23.282;2024-03-08T06:50:15;4.90;99.90
2889;DHT22;1453;42.708;23.282;2024-03-08T06:52:41;4.80;99.90
2889;DHT22;1453;42.708;23.282;2024-03-08T06:55:09;4.80;99.90
2889;DHT22;1453;42.708;23.282;2024-03-08T06:57:39;4.90;99.90
2889;DHT22;1453;42.708;23.282;2024-03-08T07:00:07;5.00;99.90
2889;DHT22;1453;42.708;23.282;2024-03-08T07:02:41;4.90;99.90
2889;DHT22;1453;42.708;23.282;2024-03-08T07:05:08;4.60;99.90
2889;DHT22;1453;42.708;23.282;2024-03-08T07:07:36;4.50;99.90
2889;DHT22;1453;42.708;23.282;2024-03-08T07:10:03;4.50;99.90
2889;DHT22;1453;42.708;23.282;2024-03-08T07:12:30;4.60;99.90
2889;DHT22;1453;42.708;23.282;2024-03-08T07:14:55;4.60;99.90
2889;DHT22;1453;42.708;23.282;2024-03-08T07:17:21;4.70;99.90
2889;DHT22;1453;42.708;23.282;2024-03-08T07:19:47;4.90;99.90
2889;DHT22;1453;42.708;23.282;2024-03-08T07:22:14;5.10;99.90
2889;DHT22;1453;42.708;23.282;2024-03-08T07:24:40;5.40;99.90
2889;DHT22;1453;42.708;23.282;2024-03-08T07:27:36;5.40;99.90
2889;DHT22;1453;42.708;23.282;2024-03-08T07:30:03;5.40;99.90
2889;DHT22;1453;42.708;23.282;2024-03-08T07:32:29;5.40;99.90
2889;DHT22;1453;42.708;23.282;2024-03-08T07:34:57;5.20;99.90
2889;DHT22;1453;42.708;23.282;2024-03-08T07:37:23;5.40;99.90
2889;DHT22;1453;42.708;23.282;2024-03-08T07:39:49;5.40;99.90
2889;DHT22;1453;42.708;23.282;2024-03-08T07:42:15;5.50;99.90
2889;DHT22;1453;42.708;23.282;2024-03-08T07:44:42;5.50;99.90
2889;DHT22;1453;42.708;23.282;2024-03-08T07:47:08;5.70;99.90
2889;DHT22;1453;42.708;23.282;2024-03-08T07:49:38;5.60;99.90
2889;DHT22;1453;42.708;23.282;2024-03-08T07:52:04;5.80;99.90
2889;DHT22;1453;42.708;23.282;2024-03-08T07:57:17;5.60;99.90
2889;DHT22;1453;42.708;23.282;2024-03-08T07:59:43;5.70;99.90
2889;DHT22;1453;42.708;23.282;2024-03-08T08:02:10;5.60;99.90
2889;DHT22;1453;42.708;23.282;2024-03-08T08:04:36;5.40;99.90
2889;DHT22;1453;42.708;23.282;2024-03-08T08:07:02;5.60;99.90
2889;DHT22;1453;42.708;23.282;2024-03-08T08:09:28;5.80;99.90
2889;DHT22;1453;42.708;23.282;2024-03-08T08:12:00;5.90;99.90
2889;DHT22;1453;42.708;23.282;2024-03-08T08:14:29;6.10;99.90
2889;DHT22;1453;42.708;23.282;2024-03-08T08:16:55;6.30;99.90
2889;DHT22;1453;42.708;23.282;2024-03-08T08:19:22;6.30;99.90
2889;DHT22;1453;42.708;23.282;2024-03-08T08:21:48;6.90;99.90
2889;DHT22;1453;42.708;23.282;2024-03-08T08:24:14;7.70;99.90
2889;DHT22;1453;42.708;23.282;2024-03-08T08:26:41;7.60;99.90
2889;DHT22;1453;42.708;23.282;2024-03-08T08:29:07;8.20;99.90
2889;DHT22;1453;42.708;23.282;2024-03-08T08:31:33;8.20;99.90
2889;DHT22;1453;42.708;23.282;2024-03-08T08:33:59;8.00;99.90
2889;DHT22;1453;42.708;23.282;2024-03-08T08:36:25;8.20;99.90
2889;DHT22;1453;42.708;23.282;2024-03-08T08:38:51;8.30;99.90
2889;DHT22;1453;42.708;23.282;2024-03-08T08:41:21;8.20;99.90
2889;DHT22;1453;42.708;23.282;2024-03-08T08:43:50;8.60;99.90
2889;DHT22;1453;42.708;23.282;2024-03-08T08:46:17;8.70;99.90
2889;DHT22;1453;42.708;23.282;2024-03-08T08:48:44;9.00;99.90
2889;DHT22;1453;42.708;23.282;2024-03-08T08:51:13;9.80;99.90
2889;DHT22;1453;42.708;23.282;2024-03-08T08:53:42;9.80;99.90
2889;DHT22;1453;42.708;23.282;2024-03-08T08:56:12;10.30;99.90
2889;DHT22;1453;42.708;23.282;2024-03-08T08:58:42;10.80;99.40
2889;DHT22;1453;42.708;23.282;2024-03-08T09:01:11;11.30;96.60
2889;DHT22;1453;42.708;23.282;2024-03-08T09:03:37;10.90;96.70
2889;DHT22;1453;42.708;23.282;2024-03-08T09:06:09;11.00;95.30
2889;DHT22;1453;42.708;23.282;2024-03-08T09:08:42;10.90;93.10
2889;DHT22;1453;42.708;23.282;2024-03-08T09:11:09;10.90;93.70
2889;DHT22;1453;42.708;23.282;2024-03-08T09:13:36;10.40;93.50
2889;DHT22;1453;42.708;23.282;2024-03-08T09:16:05;9.80;97.20
2889;DHT22;1453;42.708;23.282;2024-03-08T09:18:31;10.20;97.40
2889;DHT22;1453;42.708;23.282;2024-03-08T09:20:58;10.40;99.20
2889;DHT22;1453;42.708;23.282;2024-03-08T09:23:25;11.90;97.80
2889;DHT22;1453;42.708;23.282;2024-03-08T09:25:58;12.40;90.90
2889;DHT22;1453;42.708;23.282;2024-03-08T09:28:24;12.20;91.80
2889;DHT22;1453;42.708;23.282;2024-03-08T09:30:50;12.60;90.00
2889;DHT22;1453;42.708;23.282;2024-03-08T09:33:16;12.70;88.30
2889;DHT22;1453;42.708;23.282;2024-03-08T09:35:48;12.70;84.40
2889;DHT22;1453;42.708;23.282;2024-03-08T09:38:14;13.00;82.90
2889;DHT22;1453;42.708;23.282;2024-03-08T09:40:44;13.30;84.80
2889;DHT22;1453;42.708;23.282;2024-03-08T09:43:10;13.90;79.90
2889;DHT22;1453;42.708;23.282;2024-03-08T09:45:40;14.30;78.60
2889;DHT22;1453;42.708;23.282;2024-03-08T09:48:11;13.40;76.10
2889;DHT22;1453;42.708;23.282;2024-03-08T09:50:43;14.00;79.70
2889;DHT22;1453;42.708;23.282;2024-03-08T09:53:10;14.40;76.90
2889;DHT22;1453;42.708;23.282;2024-03-08T09:55:38;13.80;74.50
2889;DHT22;1453;42.708;23.282;2024-03-08T09:58:08;13.00;75.70
2889;DHT22;1453;42.708;23.282;2024-03-08T10:00:45;12.60;78.40
2889;DHT22;1453;42.708;23.282;2024-03-08T10:03:11;12.20;80.00
2889;DHT22;1453;42.708;23.282;2024-03-08T10:05:40;11.80;80.90
2889;DHT22;1453;42.708;23.282;2024-03-08T10:08:06;10.90;83.90
2889;DHT22;1453;42.708;23.282;2024-03-08T10:10:37;11.10;90.00
2889;DHT22;1453;42.708;23.282;2024-03-08T10:13:06;12.90;89.00
2889;DHT22;1453;42.708;23.282;2024-03-08T10:15:32;15.20;82.80
2889;DHT22;1453;42.708;23.282;2024-03-08T10:17:58;16.30;74.30
2889;DHT22;1453;42.708;23.282;2024-03-08T10:20:25;14.80;71.50
2889;DHT22;1453;42.708;23.282;2024-03-08T10:22:52;13.30;73.20
2889;DHT22;1453;42.708;23.282;2024-03-08T10:25:19;14.10;77.50
2889;DHT22;1453;42.708;23.282;2024-03-08T10:27:45;15.90;75.10
2889;DHT22;1453;42.708;23.282;2024-03-08T10:30:15;15.90;71.40
2889;DHT22;1453;42.708;23.282;2024-03-08T10:32:45;16.70;67.80
2889;DHT22;1453;42.708;23.282;2024-03-08T10:35:12;16.00;65.80
2889;DHT22;1453;42.708;23.282;2024-03-08T10:37:51;14.40;65.00
2889;DHT22;1453;42.708;23.282;2024-03-08T10:40:26;13.90;68.00
2889;DHT22;1453;42.708;23.282;2024-03-08T10:42:57;14.10;66.00
2889;DHT22;1453;42.708;23.282;2024-03-08T10:45:39;14.50;64.50
2889;DHT22;1453;42.708;23.282;2024-03-08T10:48:31;14.60;64.20
2889;DHT22;1453;42.708;23.282;2024-03-08T10:51:02;13.70;65.90
2889;DHT22;1453;42.708;23.282;2024-03-08T10:53:29;13.20;65.70
2889;DHT22;1453;42.708;23.282;2024-03-08T10:55:58;13.90;67.30
2889;DHT22;1453;42.708;23.282;2024-03-08T10:58:25;14.40;67.20
2889;DHT22;1453;42.708;23.282;2024-03-08T11:00:55;15.30;69.20
2889;DHT22;1453;42.708;23.282;2024-03-08T11:06:30;13.00;69.80
2889;DHT22;1453;42.708;23.282;2024-03-08T11:09:36;12.70;69.50
2889;DHT22;1453;42.708;23.282;2024-03-08T11:12:24;12.90;69.70
2889;DHT22;1453;42.708;23.282;2024-03-08T11:15:01;12.70;68.10
2889;DHT22;1453;42.708;23.282;2024-03-08T11:19:58;12.60;72.80
2889;DHT22;1453;42.708;23.282;2024-03-08T11:22:33;12.50;72.30
2889;DHT22;1453;42.708;23.282;2024-03-08T11:25:02;12.00;73.50
2889;DHT22;1453;42.708;23.282;2024-03-08T11:27:34;12.00;73.40
2889;DHT22;1453;42.708;23.282;2024-03-08T11:30:05;12.20;73.30
2889;DHT22;1453;42.708;23.282;2024-03-08T11:32:37;11.90;73.30
2889;DHT22;1453;42.708;23.282;2024-03-08T11:35:20;12.00;75.10
2889;DHT22;1453;42.708;23.282;2024-03-08T11:37:48;11.70;74.00
2889;DHT22;1453;42.708;23.282;2024-03-08T11:40:15;11.80;75.40
2889;DHT22;1453;42.708;23.282;2024-03-08T11:42:45;12.50;73.50
2889;DHT22;1453;42.708;23.282;2024-03-08T11:45:17;13.60;72.30
2889;DHT22;1453;42.708;23.282;2024-03-08T11:47:46;15.60;69.80
2889;DHT22;1453;42.708;23.282;2024-03-08T11:50:14;16.90;64.70
2889;DHT22;1453;42.708;23.282;2024-03-08T11:52:40;17.40;65.10
2889;DHT22;1453;42.708;23.282;2024-03-08T11:55:08;18.30;63.70
2889;DHT22;1453;42.708;23.282;2024-03-08T11:57:34;17.00;62.00
2889;DHT22;1453;42.708;23.282;2024-03-08T12:00:02;16.80;62.30
2889;DHT22;1453;42.708;23.282;2024-03-08T12:02:33;17.30;62.30
2889;DHT22;1453;42.708;23.282;2024-03-08T12:05:04;17.40;60.40
2889;DHT22;1453;42.708;23.282;2024-03-08T12:07:35;16.90;59.50
2889;DHT22;1453;42.708;23.282;2024-03-08T12:10:18;15.70;60.80
2889;DHT22;1453;42.708;23.282;2024-03-08T12:12:48;15.20;62.80
2889;DHT22;1453;42.708;23.282;2024-03-08T12:15:17;16.10;62.90
2889;DHT22;1453;42.708;23.282;2024-03-08T12:17:44;16.80;61.10
2889;DHT22;1453;42.708;23.282;2024-03-08T12:22:49;18.50;59.20
2889;DHT22;1453;42.708;23.282;2024-03-08T12:25:19;19.40;57.70
2889;DHT22;1453;42.708;23.282;2024-03-08T12:27:46;18.00;57.10
2889;DHT22;1453;42.708;23.282;2024-03-08T12:30:32;17.60;57.60
2889;DHT22;1453;42.708;23.282;2024-03-08T12:33:00;17.80;59.80
2889;DHT22;1453;42.708;23.282;2024-03-08T12:35:30;18.00;58.50
2889;DHT22;1453;42.708;23.282;2024-03-08T12:37:59;17.70;58.80
2889;DHT22;1453;42.708;23.282;2024-03-08T12:40:34;18.10;57.80
2889;DHT22;1453;42.708;23.282;2024-03-08T12:43:06;18.20;57.80
2889;DHT22;1453;42.708;23.282;2024-03-08T12:45:32;18.40;58.20
2889;DHT22;1453;42.708;23.282;2024-03-08T12:47:58;18.60;56.70
2889;DHT22;1453;42.708;23.282;2024-03-08T12:50:25;18.80;56.90
2889;DHT22;1453;42.708;23.282;2024-03-08T12:52:51;18.70;56.30
2889;DHT22;1453;42.708;23.282;2024-03-08T12:55:21;18.60;56.60
2889;DHT22;1453;42.708;23.282;2024-03-08T12:57:47;16.70;56.70
2889;DHT22;1453;42.708;23.282;2024-03-08T13:00:14;15.10;59.50
2889;DHT22;1453;42.708;23.282;2024-03-08T13:02:48;16.30;61.50
2889;DHT22;1453;42.708;23.282;2024-03-08T13:05:16;15.90;59.10
2889;DHT22;1453;42.708;23.282;2024-03-08T13:07:42;16.60;59.70
2889;DHT22;1453;42.708;23.282;2024-03-08T13:10:13;17.80;58.40
2889;DHT22;1453;42.708;23.282;2024-03-08T13:12:42;18.20;57.40
2889;DHT22;1453;42.708;23.282;2024-03-08T13:15:09;18.60;57.40
2889;DHT22;1453;42.708;23.282;2024-03-08T13:17:40;17.70;55.80
2889;DHT22;1453;42.708;23.282;2024-03-08T13:20:08;16.90;57.00
2889;DHT22;1453;42.708;23.282;2024-03-08T13:22:35;17.30;57.30
2889;DHT22;1453;42.708;23.282;2024-03-08T13:25:02;18.20;56.90
2889;DHT22;1453;42.708;23.282;2024-03-08T13:27:28;17.00;58.00
2889;DHT22;1453;42.708;23.282;2024-03-08T13:29:54;17.90;56.90
2889;DHT22;1453;42.708;23.282;2024-03-08T13:32:20;17.10;57.10
2889;DHT22;1453;42.708;23.282;2024-03-08T13:34:47;16.10;57.50
2889;DHT22;1453;42.708;23.282;2024-03-08T13:37:14;16.50;57.60
2889;DHT22;1453;42.708;23.282;2024-03-08T13:39:42;15.90;57.80
2889;DHT22;1453;42.708;23.282;2024-03-08T13:42:13;14.90;58.40
2889;DHT22;1453;42.708;23.282;2024-03-08T13:44:43;14.70;59.60
2889;DHT22;1453;42.708;23.282;2024-03-08T13:47:09;14.00;60.20
2889;DHT22;1453;42.708;23.282;2024-03-08T13:49:37;13.40;60.70
2889;DHT22;1453;42.708;23.282;2024-03-08T13:52:03;13.30;61.50
2889;DHT22;1453;42.708;23.282;2024-03-08T13:54:30;12.30;62.50
2889;DHT22;1453;42.708;23.282;2024-03-08T13:56:57;11.80;64.80
2889;DHT22;1453;42.708;23.282;2024-03-08T13:59:24;11.60;65.40
2889;DHT22;1453;42.708;23.282;2024-03-08T14:01:50;11.50;66.50
2889;DHT22;1453;42.708;23.282;2024-03-08T14:04:16;11.50;67.60
2889;DHT22;1453;42.708;23.282;2024-03-08T14:06:45;10.90;67.70
2889;DHT22;1453;42.708;23.282;2024-03-08T14:09:11;11.00;69.00
2889;DHT22;1453;42.708;23.282;2024-03-08T14:11:45;11.00;69.30
2889;DHT22;1453;42.708;23.282;2024-03-08T14:14:12;11.10;70.10
2889;DHT22;1453;42.708;23.282;2024-03-08T14:16:40;11.30;70.40
2889;DHT22;1453;42.708;23.282;2024-03-08T14:19:06;11.20;69.70
2889;DHT22;1453;42.708;23.282;2024-03-08T14:21:35;10.90;70.30
2889;DHT22;1453;42.708;23.282;2024-03-08T14:24:02;10.20;72.50
2889;DHT22;1453;42.708;23.282;2024-03-08T14:26:30;10.20;76.00
2889;DHT22;1453;42.708;23.282;2024-03-08T14:28:56;10.20;76.70
2889;DHT22;1453;42.708;23.282;2024-03-08T14:31:22;10.10;78.30
2889;DHT22;1453;42.708;23.282;2024-03-08T14:33:51;10.20;78.50
2889;DHT22;1453;42.708;23.282;2024-03-08T14:36:19;10.20;78.50
2889;DHT22;1453;42.708;23.282;2024-03-08T14:38:49;10.10;78.50
2889;DHT22;1453;42.708;23.282;2024-03-08T14:41:15;9.90;80.30
2889;DHT22;1453;42.708;23.282;2024-03-08T14:43:44;9.60;82.60
2889;DHT22;1453;42.708;23.282;2024-03-08T14:46:18;9.50;84.60
2889;DHT22;1453;42.708;23.282;2024-03-08T14:48:52;9.50;85.60
2889;DHT22;1453;42.708;23.282;2024-03-08T14:51:19;9.30;88.40
2889;DHT22;1453;42.708;23.282;2024-03-08T14:53:48;9.30;90.30
2889;DHT22;1453;42.708;23.282;2024-03-08T14:56:15;8.90;93.20
2889;DHT22;1453;42.708;23.282;2024-03-08T14:58:45;9.20;94.10
2889;DHT22;1453;42.708;23.282;2024-03-08T15:01:15;9.30;94.10
2889;DHT22;1453;42.708;23.282;2024-03-08T15:03:44;9.30;93.10
2889;DHT22;1453;42.708;23.282;2024-03-08T15:06:11;9.40;92.50
2889;DHT22;1453;42.708;23.282;2024-03-08T15:08:38;9.30;92.60
2889;DHT22;1453;42.708;23.282;2024-03-08T15:11:08;9.00;93.90
2889;DHT22;1453;42.708;23.282;2024-03-08T15:13:34;8.80;94.90
2889;DHT22;1453;42.708;23.282;2024-03-08T15:16:11;8.50;96.30
2889;DHT22;1453;42.708;23.282;2024-03-08T15:18:42;8.50;99.20
2889;DHT22;1453;42.708;23.282;2024-03-08T15:21:13;8.40;99.90
2889;DHT22;1453;42.708;23.282;2024-03-08T15:23:45;8.30;99.90
2889;DHT22;1453;42.708;23.282;2024-03-08T15:26:19;8.20;99.90
2889;DHT22;1453;42.708;23.282;2024-03-08T15:28:45;8.10;99.90
2889;DHT22;1453;42.708;23.282;2024-03-08T15:31:15;8.10;99.90
2889;DHT22;1453;42.708;23.282;2024-03-08T15:33:41;7.90;99.90
2889;DHT22;1453;42.708;23.282;2024-03-08T15:36:14;7.90;99.90
2889;DHT22;1453;42.708;23.282;2024-03-08T15:38:42;7.90;99.90
2889;DHT22;1453;42.708;23.282;2024-03-08T15:41:16;7.90;99.90
2889;DHT22;1453;42.708;23.282;2024-03-08T15:43:43;7.90;99.90
2889;DHT22;1453;42.708;23.282;2024-03-08T15:46:10;7.80;99.90
2889;DHT22;1453;42.708;23.282;2024-03-08T15:48:38;7.70;99.90
2889;DHT22;1453;42.708;23.282;2024-03-08T15:51:07;7.40;99.90
2889;DHT22;1453;42.708;23.282;2024-03-08T15:53:36;7.50;99.90
2889;DHT22;1453;42.708;23.282;2024-03-08T15:56:04;7.50;99.90
2889;DHT22;1453;42.708;23.282;2024-03-08T15:58:34;7.40;99.90
2889;DHT22;1453;42.708;23.282;2024-03-08T16:01:04;7.30;99.90
2889;DHT22;1453;42.708;23.282;2024-03-08T16:03:33;7.10;99.90
2889;DHT22;1453;42.708;23.282;2024-03-08T16:05:59;7.00;99.90
2889;DHT22;1453;42.708;23.282;2024-03-08T16:08:25;7.00;99.90
2889;DHT22;1453;42.708;23.282;2024-03-08T16:10:54;7.00;99.90
2889;DHT22;1453;42.708;23.282;2024-03-08T16:13:26;7.10;99.90
2889;DHT22;1453;42.708;23.282;2024-03-08T16:15:53;6.90;99.90